sensor_id;sensor_type;location;lat;lon;timestamp;pressure;altitude;pressure_sealevel;temperature;humidity
77897;BME280;67092;64.282;21.056;2023-06-10T00:00:45;102796.82;;;21.18;27.20
77897;BME280;67092;64.282;21.056;2023-06-10T00:03:11;102798.90;;;21.17;27.40
77897;BME280;67092;64.282;21.056;2023-06-10T00:05:36;102797.20;;;21.04;27.30
77897;BME280;67092;64.282;21.056;2023-06-10T00:08:02;102800.99;;;20.49;27.65
77897;BME280;67092;64.282;21.056;2023-06-10T00:10:28;102804.59;;;21.22;27.18
77897;BME280;67092;64.282;21.056;2023-06-10T00:12:53;102805.55;;;20.79;27.58
77897;BME280;67092;64.282;21.056;2023-06-10T00:15:19;102805.15;;;20.74;27.38
77897;BME280;67092;64.282;21.056;2023-06-10T00:17:44;102804.11;;;20.90;27.80
77897;BME280;67092;64.282;21.056;2023-06-10T00:20:11;102804.62;;;20.47;28.01
77897;BME280;67092;64.282;21.056;2023-06-10T00:22:36;102806.77;;;20.69;27.84
77897;BME280;67092;64.282;21.056;2023-06-10T00:25:01;102811.83;;;20.95;27.75
77897;BME280;67092;64.282;21.056;2023-06-10T00:27:26;102807.96;;;20.55;27.74
77897;BME280;67092;64.282;21.056;2023-06-10T00:29:52;102808.16;;;20.54;27.91
77897;BME280;67092;64.282;21.056;2023-06-10T00:32:18;102811.70;;;20.85;27.56
77897;BME280;67092;64.282;21.056;2023-06-10T00:34:43;102816.97;;;20.65;28.05
77897;BME280;67092;64.282;21.056;2023-06-10T00:37:09;102815.79;;;21.12;27.57
77897;BME280;67092;64.282;21.056;2023-06-10T00:39:35;102815.11;;;21.09;27.29
77897;BME280;67092;64.282;21.056;2023-06-10T00:42:00;102820.46;;;21.14;27.46
77897;BME280;67092;64.282;21.056;2023-06-10T00:44:26;102822.78;;;21.11;27.51
77897;BME280;67092;64.282;21.056;2023-06-10T00:46:51;102826.75;;;20.56;27.59
77897;BME280;67092;64.282;21.056;2023-06-10T00:49:17;102826.14;;;21.10;27.44
77897;BME280;67092;64.282;21.056;2023-06-10T00:51:43;102825.79;;;21.03;27.56
77897;BME280;67092;64.282;21.056;2023-06-10T00:54:08;102825.76;;;21.29;27.21
77897;BME280;67092;64.282;21.056;2023-06-10T00:56:34;102828.79;;;20.27;28.02
77897;BME280;67092;64.282;21.056;2023-06-10T00:58:59;102828.95;;;20.69;27.93
77897;BME280;67092;64.282;21.056;2023-06-10T01:01:25;102822.91;;;20.93;27.62
77897;BME280;67092;64.282;21.056;2023-06-10T01:03:50;102824.49;;;21.05;27.48
77897;BME280;67092;64.282;21.056;2023-06-10T01:06:24;102826.87;;;20.62;27.55
77897;BME280;67092;64.282;21.056;2023-06-10T01:08:50;102828.15;;;20.52;27.29
77897;BME280;67092;64.282;21.056;2023-06-10T01:11:13;102830.94;;;19.21;27.35
77897;BME280;67092;64.282;21.056;2023-06-10T01:13:34;102834.72;;;20.99;26.72
77897;BME280;67092;64.282;21.056;2023-06-10T01:15:59;102837.72;;;21.35;26.65
77897;BME280;67092;64.282;21.056;2023-06-10T01:18:30;102832.04;;;20.77;27.21
77897;BME280;67092;64.282;21.056;2023-06-10T01:20:50;102829.81;;;21.18;27.05
77897;BME280;67092;64.282;21.056;2023-06-10T01:23:16;102831.42;;;20.84;27.12
77897;BME280;67092;64.282;21.056;2023-06-10T01:25:43;102830.75;;;21.10;27.04
77897;BME280;67092;64.282;21.056;2023-06-10T01:28:12;102827.04;;;20.98;27.46
77897;BME280;67092;64.282;21.056;2023-06-10T01:30:37;102832.86;;;20.40;27.83
77897;BME280;67092;64.282;21.056;2023-06-10T01:32:59;102828.31;;;20.63;27.56
77897;BME280;67092;64.282;21.056;2023-06-10T01:35:25;102830.08;;;20.97;27.20
77897;BME280;67092;64.282;21.056;2023-06-10T01:37:50;102832.52;;;21.13;27.03
77897;BME280;67092;64.282;21.056;2023-06-10T01:40:15;102833.70;;;21.01;27.41
77897;BME280;67092;64.282;21.056;2023-06-10T01:42:40;102836.05;;;20.58;27.32
77897;BME280;67092;64.282;21.056;2023-06-10T01:45:07;102836.40;;;20.99;27.20
77897;BME280;67092;64.282;21.056;2023-06-10T01:47:31;102836.11;;;21.15;27.25
77897;BME280;67092;64.282;21.056;2023-06-10T01:49:57;102841.68;;;20.78;27.60
77897;BME280;67092;64.282;21.056;2023-06-10T01:52:23;102837.02;;;21.12;27.04
77897;BME280;67092;64.282;21.056;2023-06-10T01:54:48;102835.58;;;21.12;27.29
77897;BME280;67092;64.282;21.056;2023-06-10T01:57:14;102838.75;;;20.58;27.62
77897;BME280;67092;64.282;21.056;2023-06-10T01:59:39;102835.46;;;21.34;27.01
77897;BME280;67092;64.282;21.056;2023-06-10T02:02:05;102832.04;;;20.74;27.36
77897;BME280;67092;64.282;21.056;2023-06-10T02:04:31;102839.67;;;20.50;27.86
77897;BME280;67092;64.282;21.056;2023-06-10T02:06:56;102839.10;;;20.57;27.53
77897;BME280;67092;64.282;21.056;2023-06-10T02:09:22;102834.08;;;20.60;27.21
77897;BME280;67092;64.282;21.056;2023-06-10T02:11:47;102836.30;;;20.84;27.18
77897;BME280;67092;64.282;21.056;2023-06-10T02:14:13;102841.34;;;20.66;27.67
77897;BME280;67092;64.282;21.056;2023-06-10T02:16:38;102842.66;;;20.52;27.55
77897;BME280;67092;64.282;21.056;2023-06-10T02:19:04;102839.13;;;20.79;27.50
77897;BME280;67092;64.282;21.056;2023-06-10T02:21:30;102843.22;;;20.63;27.70
77897;BME280;67092;64.282;21.056;2023-06-10T02:23:55;102838.74;;;20.79;27.29
77897;BME280;67092;64.282;21.056;2023-06-10T02:26:21;102840.55;;;21.08;27.23
77897;BME280;67092;64.282;21.056;2023-06-10T02:28:46;102842.08;;;20.42;27.36
77897;BME280;67092;64.282;21.056;2023-06-10T02:31:13;102841.78;;;20.37;27.47
77897;BME280;67092;64.282;21.056;2023-06-10T02:33:38;102838.97;;;20.96;27.34
77897;BME280;67092;64.282;21.056;2023-06-10T02:36:04;102837.48;;;20.89;27.42
77897;BME280;67092;64.282;21.056;2023-06-10T02:38:29;102843.49;;;20.81;27.50
77897;BME280;67092;64.282;21.056;2023-06-10T02:40:55;102837.00;;;21.06;27.23
77897;BME280;67092;64.282;21.056;2023-06-10T02:43:20;102834.63;;;20.74;27.39
77897;BME280;67092;64.282;21.056;2023-06-10T02:45:46;102837.47;;;20.76;27.62
77897;BME280;67092;64.282;21.056;2023-06-10T02:48:11;102835.18;;;20.93;27.15
77897;BME280;67092;64.282;21.056;2023-06-10T02:50:37;102834.07;;;21.06;27.28
77897;BME280;67092;64.282;21.056;2023-06-10T02:53:02;102834.00;;;20.99;27.39
77897;BME280;67092;64.282;21.056;2023-06-10T02:55:28;102835.55;;;20.50;27.42
77897;BME280;67092;64.282;21.056;2023-06-10T02:57:54;102842.99;;;20.61;27.77
77897;BME280;67092;64.282;21.056;2023-06-10T03:00:19;102844.31;;;20.47;27.64
77897;BME280;67092;64.282;21.056;2023-06-10T03:02:45;102845.63;;;20.88;27.23
77897;BME280;67092;64.282;21.056;2023-06-10T03:05:10;102843.31;;;20.43;27.38
77897;BME280;67092;64.282;21.056;2023-06-10T03:07:37;102850.00;;;20.63;27.73
77897;BME280;67092;64.282;21.056;2023-06-10T03:10:02;102849.85;;;20.65;27.70
77897;BME280;67092;64.282;21.056;2023-06-10T03:12:27;102850.29;;;20.83;27.51
77897;BME280;67092;64.282;21.056;2023-06-10T03:14:53;102850.56;;;20.28;27.58
77897;BME280;67092;64.282;21.056;2023-06-10T03:17:18;102846.11;;;20.85;27.18
77897;BME280;67092;64.282;21.056;2023-06-10T03:19:44;102851.21;;;20.66;27.67
77897;BME280;67092;64.282;21.056;2023-06-10T03:22:12;102845.68;;;21.16;27.15
77897;BME280;67092;64.282;21.056;2023-06-10T03:24:35;102850.92;;;20.77;27.58
77897;BME280;67092;64.282;21.056;2023-06-10T03:27:01;102852.35;;;20.32;27.57
77897;BME280;67092;64.282;21.056;2023-06-10T03:29:26;102854.10;;;20.37;27.50
77897;BME280;67092;64.282;21.056;2023-06-10T03:31:52;102850.33;;;21.09;27.21
77897;BME280;67092;64.282;21.056;2023-06-10T03:34:18;102849.78;;;21.04;27.27
77897;BME280;67092;64.282;21.056;2023-06-10T03:36:43;102853.08;;;20.70;27.46
77897;BME280;67092;64.282;21.056;2023-06-10T03:39:09;102853.94;;;20.80;27.36
77897;BME280;67092;64.282;21.056;2023-06-10T03:41:35;102856.46;;;20.84;27.53
77897;BME280;67092;64.282;21.056;2023-06-10T03:44:00;102855.89;;;20.66;27.71
77897;BME280;67092;64.282;21.056;2023-06-10T03:46:26;102857.31;;;20.65;27.69
77897;BME280;67092;64.282;21.056;2023-06-10T03:48:51;102853.93;;;21.19;27.15
77897;BME280;67092;64.282;21.056;2023-06-10T03:51:17;102854.87;;;20.87;27.47
77897;BME280;67092;64.282;21.056;2023-06-10T03:53:42;102855.24;;;20.49;27.87
77897;BME280;67092;64.282;21.056;2023-06-10T03:56:08;102854.38;;;20.53;27.55
77897;BME280;67092;64.282;21.056;2023-06-10T03:58:34;102851.68;;;20.91;27.34
77897;BME280;67092;64.282;21.056;2023-06-10T04:00:59;102850.82;;;20.96;27.38
77897;BME280;67092;64.282;21.056;2023-06-10T04:03:25;102853.52;;;20.36;27.66
77897;BME280;67092;64.282;21.056;2023-06-10T04:05:50;102855.26;;;20.44;27.57
77897;BME280;67092;64.282;21.056;2023-06-10T04:08:16;102852.29;;;21.14;27.06
77897;BME280;67092;64.282;21.056;2023-06-10T04:10:42;102856.48;;;20.47;27.31
77897;BME280;67092;64.282;21.056;2023-06-10T04:13:07;102858.01;;;20.19;27.64
77897;BME280;67092;64.282;21.056;2023-06-10T04:15:33;102855.82;;;20.72;27.28
77897;BME280;67092;64.282;21.056;2023-06-10T04:17:59;102858.64;;;20.61;27.67
77897;BME280;67092;64.282;21.056;2023-06-10T04:20:24;102854.17;;;21.06;27.20
77897;BME280;67092;64.282;21.056;2023-06-10T04:22:50;102854.86;;;20.89;27.16
77897;BME280;67092;64.282;21.056;2023-06-10T04:25:15;102858.71;;;20.52;27.76
77897;BME280;67092;64.282;21.056;2023-06-10T04:27:41;102862.97;;;20.68;27.64
77897;BME280;67092;64.282;21.056;2023-06-10T04:30:07;102861.77;;;20.98;27.08
77897;BME280;67092;64.282;21.056;2023-06-10T04:32:32;102864.69;;;20.85;27.44
77897;BME280;67092;64.282;21.056;2023-06-10T04:34:59;102867.80;;;20.91;27.38
77897;BME280;67092;64.282;21.056;2023-06-10T04:37:23;102865.92;;;20.96;27.29
77897;BME280;67092;64.282;21.056;2023-06-10T04:39:49;102863.48;;;21.02;27.01
77897;BME280;67092;64.282;21.056;2023-06-10T04:42:14;102867.15;;;20.57;27.53
77897;BME280;67092;64.282;21.056;2023-06-10T04:44:40;102866.93;;;20.49;27.59
77897;BME280;67092;64.282;21.056;2023-06-10T04:47:06;102862.67;;;20.97;27.31
77897;BME280;67092;64.282;21.056;2023-06-10T04:49:31;102863.88;;;20.70;27.62
77897;BME280;67092;64.282;21.056;2023-06-10T04:51:58;102860.86;;;20.59;27.46
77897;BME280;67092;64.282;21.056;2023-06-10T04:54:22;102856.76;;;20.63;27.51
77897;BME280;67092;64.282;21.056;2023-06-10T04:56:48;102851.67;;;20.69;27.19
77897;BME280;67092;64.282;21.056;2023-06-10T04:59:14;102853.65;;;20.72;27.36
77897;BME280;67092;64.282;21.056;2023-06-10T05:01:39;102851.58;;;21.10;27.25
77897;BME280;67092;64.282;21.056;2023-06-10T05:04:05;102851.94;;;20.74;27.38
77897;BME280;67092;64.282;21.056;2023-06-10T05:06:30;102853.33;;;20.81;27.61
77897;BME280;67092;64.282;21.056;2023-06-10T05:08:56;102847.96;;;21.09;27.08
77897;BME280;67092;64.282;21.056;2023-06-10T05:11:22;102851.33;;;20.85;27.57
77897;BME280;67092;64.282;21.056;2023-06-10T05:13:47;102847.04;;;20.85;27.05
77897;BME280;67092;64.282;21.056;2023-06-10T05:16:13;102844.47;;;20.61;27.32
77897;BME280;67092;64.282;21.056;2023-06-10T05:18:38;102847.77;;;20.49;27.76
77897;BME280;67092;64.282;21.056;2023-06-10T05:21:04;102844.14;;;21.09;27.12
77897;BME280;67092;64.282;21.056;2023-06-10T05:23:30;102847.30;;;20.59;27.62
77897;BME280;67092;64.282;21.056;2023-06-10T05:25:55;102843.03;;;20.61;27.60
77897;BME280;67092;64.282;21.056;2023-06-10T05:28:21;102837.02;;;20.83;27.36
77897;BME280;67092;64.282;21.056;2023-06-10T05:30:46;102836.58;;;21.10;27.34
77897;BME280;67092;64.282;21.056;2023-06-10T05:33:12;102831.81;;;21.16;27.27
77897;BME280;67092;64.282;21.056;2023-06-10T05:35:38;102834.40;;;20.87;27.34
77897;BME280;67092;64.282;21.056;2023-06-10T05:38:03;102835.09;;;21.40;27.08
77897;BME280;67092;64.282;21.056;2023-06-10T05:40:29;102834.41;;;20.68;27.54
77897;BME280;67092;64.282;21.056;2023-06-10T05:42:54;102836.76;;;20.97;27.58
77897;BME280;67092;64.282;21.056;2023-06-10T05:45:20;102835.16;;;21.17;27.07
77897;BME280;67092;64.282;21.056;2023-06-10T05:47:46;102838.44;;;20.63;27.64
77897;BME280;67092;64.282;21.056;2023-06-10T05:50:11;102837.87;;;20.94;27.54
77897;BME280;67092;64.282;21.056;2023-06-10T05:52:37;102844.26;;;20.71;27.54
77897;BME280;67092;64.282;21.056;2023-06-10T05:55:03;102846.43;;;20.75;27.84
77897;BME280;67092;64.282;21.056;2023-06-10T05:57:28;102845.25;;;21.00;27.69
77897;BME280;67092;64.282;21.056;2023-06-10T05:59:54;102843.43;;;20.97;27.75
77897;BME280;67092;64.282;21.056;2023-06-10T06:02:19;102843.69;;;20.87;27.63
77897;BME280;67092;64.282;21.056;2023-06-10T06:04:45;102843.30;;;20.45;27.83
77897;BME280;67092;64.282;21.056;2023-06-10T06:07:10;102844.90;;;21.13;27.41
77897;BME280;67092;64.282;21.056;2023-06-10T06:09:36;102840.94;;;21.01;27.58
77897;BME280;67092;64.282;21.056;2023-06-10T06:12:02;102843.46;;;21.02;27.81
77897;BME280;67092;64.282;21.056;2023-06-10T06:14:31;102845.29;;;20.69;27.97
77897;BME280;67092;64.282;21.056;2023-06-10T06:16:53;102838.70;;;20.72;27.94
77897;BME280;67092;64.282;21.056;2023-06-10T06:19:18;102835.94;;;20.74;27.94
77897;BME280;67092;64.282;21.056;2023-06-10T06:21:44;102835.60;;;20.98;27.93
77897;BME280;67092;64.282;21.056;2023-06-10T06:24:09;102845.24;;;20.64;28.02
77897;BME280;67092;64.282;21.056;2023-06-10T06:26:35;102840.10;;;21.61;27.28
77897;BME280;67092;64.282;21.056;2023-06-10T06:29:01;102837.60;;;21.04;27.66
77897;BME280;67092;64.282;21.056;2023-06-10T06:31:26;102837.81;;;21.40;27.27
77897;BME280;67092;64.282;21.056;2023-06-10T06:33:52;102840.32;;;20.44;28.30
77897;BME280;67092;64.282;21.056;2023-06-10T06:36:17;102837.33;;;20.92;27.82
77897;BME280;67092;64.282;21.056;2023-06-10T06:38:43;102837.11;;;20.84;27.91
77897;BME280;67092;64.282;21.056;2023-06-10T06:41:09;102835.27;;;20.54;28.21
77897;BME280;67092;64.282;21.056;2023-06-10T06:43:35;102835.71;;;21.06;27.92
77897;BME280;67092;64.282;21.056;2023-06-10T06:46:00;102832.84;;;20.92;28.08
77897;BME280;67092;64.282;21.056;2023-06-10T06:48:26;102834.45;;;20.31;28.25
77897;BME280;67092;64.282;21.056;2023-06-10T06:50:51;102830.14;;;21.20;27.80
77897;BME280;67092;64.282;21.056;2023-06-10T06:53:17;102830.55;;;20.84;27.69
77897;BME280;67092;64.282;21.056;2023-06-10T06:55:42;102833.70;;;20.72;28.07
77897;BME280;67092;64.282;21.056;2023-06-10T06:58:08;102829.52;;;20.81;27.98
77897;BME280;67092;64.282;21.056;2023-06-10T07:00:34;102827.55;;;21.16;27.64
77897;BME280;67092;64.282;21.056;2023-06-10T07:02:59;102829.50;;;21.37;27.66
77897;BME280;67092;64.282;21.056;2023-06-10T07:05:25;102824.65;;;20.82;27.72
77897;BME280;67092;64.282;21.056;2023-06-10T07:07:50;102823.43;;;21.16;27.41
77897;BME280;67092;64.282;21.056;2023-06-10T07:10:16;102821.71;;;21.34;27.47
77897;BME280;67092;64.282;21.056;2023-06-10T07:12:41;102820.06;;;21.15;27.69
77897;BME280;67092;64.282;21.056;2023-06-10T07:15:08;102822.69;;;20.98;27.57
77897;BME280;67092;64.282;21.056;2023-06-10T07:17:32;102816.70;;;21.14;27.69
77897;BME280;67092;64.282;21.056;2023-06-10T07:19:58;102818.76;;;20.82;27.71
77897;BME280;67092;64.282;21.056;2023-06-10T07:22:24;102818.16;;;20.78;27.80
77897;BME280;67092;64.282;21.056;2023-06-10T07:24:49;102819.59;;;20.58;28.01
77897;BME280;67092;64.282;21.056;2023-06-10T07:27:15;102821.24;;;21.30;27.51
77897;BME280;67092;64.282;21.056;2023-06-10T07:29:40;102818.01;;;21.28;27.56
77897;BME280;67092;64.282;21.056;2023-06-10T07:32:07;102816.85;;;20.98;27.60
77897;BME280;67092;64.282;21.056;2023-06-10T07:34:32;102811.69;;;21.05;27.49
77897;BME280;67092;64.282;21.056;2023-06-10T07:36:57;102812.20;;;21.36;27.17
77897;BME280;67092;64.282;21.056;2023-06-10T07:39:23;102810.53;;;21.07;27.48
77897;BME280;67092;64.282;21.056;2023-06-10T07:41:48;102807.67;;;21.09;27.65
77897;BME280;67092;64.282;21.056;2023-06-10T07:44:14;102809.82;;;21.14;27.36
77897;BME280;67092;64.282;21.056;2023-06-10T07:46:40;102807.31;;;21.27;27.51
77897;BME280;67092;64.282;21.056;2023-06-10T07:49:05;102807.94;;;21.18;27.32
77897;BME280;67092;64.282;21.056;2023-06-10T07:51:31;102806.35;;;21.20;27.32
77897;BME280;67092;64.282;21.056;2023-06-10T07:53:56;102802.34;;;21.15;27.64
77897;BME280;67092;64.282;21.056;2023-06-10T07:56:22;102807.81;;;21.22;27.54
77897;BME280;67092;64.282;21.056;2023-06-10T07:58:48;102807.37;;;21.44;27.06
77897;BME280;67092;64.282;21.056;2023-06-10T08:01:13;102806.82;;;21.47;27.05
77897;BME280;67092;64.282;21.056;2023-06-10T08:03:39;102800.44;;;20.94;27.57
77897;BME280;67092;64.282;21.056;2023-06-10T08:06:05;102800.00;;;21.05;27.74
77897;BME280;67092;64.282;21.056;2023-06-10T08:08:30;102802.72;;;21.32;27.21
77897;BME280;67092;64.282;21.056;2023-06-10T08:10:56;102806.54;;;21.36;27.37
77897;BME280;67092;64.282;21.056;2023-06-10T08:13:21;102803.44;;;21.03;27.52
77897;BME280;67092;64.282;21.056;2023-06-10T08:15:47;102804.76;;;21.30;27.25
77897;BME280;67092;64.282;21.056;2023-06-10T08:18:13;102805.98;;;21.51;27.35
77897;BME280;67092;64.282;21.056;2023-06-10T08:20:38;102806.93;;;21.44;27.08
77897;BME280;67092;64.282;21.056;2023-06-10T08:23:03;102798.08;;;21.46;27.09
77897;BME280;67092;64.282;21.056;2023-06-10T08:25:29;102799.73;;;20.93;27.66
77897;BME280;67092;64.282;21.056;2023-06-10T08:27:55;102798.49;;;21.23;27.61
77897;BME280;67092;64.282;21.056;2023-06-10T08:30:20;102804.06;;;21.25;27.35
77897;BME280;67092;64.282;21.056;2023-06-10T08:32:46;102802.44;;;21.38;27.21
77897;BME280;67092;64.282;21.056;2023-06-10T08:35:11;102795.14;;;21.65;26.96
77897;BME280;67092;64.282;21.056;2023-06-10T08:37:37;102795.09;;;21.75;26.83
77897;BME280;67092;64.282;21.056;2023-06-10T08:40:03;102797.25;;;21.45;27.12
77897;BME280;67092;64.282;21.056;2023-06-10T08:42:38;102794.65;;;21.04;27.58
77897;BME280;67092;64.282;21.056;2023-06-10T08:44:54;102788.87;;;21.41;27.18
77897;BME280;67092;64.282;21.056;2023-06-10T08:47:20;102792.57;;;21.10;27.49
77897;BME280;67092;64.282;21.056;2023-06-10T08:49:46;102786.65;;;21.57;27.06
77897;BME280;67092;64.282;21.056;2023-06-10T08:52:14;102794.98;;;21.14;27.52
77897;BME280;67092;64.282;21.056;2023-06-10T08:54:37;102792.68;;;21.30;27.32
77897;BME280;67092;64.282;21.056;2023-06-10T08:57:05;102786.79;;;21.19;27.41
77897;BME280;67092;64.282;21.056;2023-06-10T08:59:27;102783.99;;;21.50;27.38
77897;BME280;67092;64.282;21.056;2023-06-10T09:01:53;102775.12;;;21.59;27.03
77897;BME280;67092;64.282;21.056;2023-06-10T09:04:19;102783.78;;;21.25;27.39
77897;BME280;67092;64.282;21.056;2023-06-10T09:06:45;102769.69;;;21.42;27.22
77897;BME280;67092;64.282;21.056;2023-06-10T09:09:10;102771.26;;;21.23;27.45
77897;BME280;67092;64.282;21.056;2023-06-10T09:11:37;102769.77;;;21.18;27.48
77897;BME280;67092;64.282;21.056;2023-06-10T09:14:02;102771.17;;;21.38;27.28
77897;BME280;67092;64.282;21.056;2023-06-10T09:16:27;102772.24;;;21.51;27.19
77897;BME280;67092;64.282;21.056;2023-06-10T09:18:52;102770.33;;;21.40;27.20
77897;BME280;67092;64.282;21.056;2023-06-10T09:21:18;102765.97;;;21.09;27.58
77897;BME280;67092;64.282;21.056;2023-06-10T09:23:43;102772.56;;;21.50;27.13
77897;BME280;67092;64.282;21.056;2023-06-10T09:26:09;102769.43;;;21.63;27.23
77897;BME280;67092;64.282;21.056;2023-06-10T09:28:34;102768.12;;;21.69;26.94
77897;BME280;67092;64.282;21.056;2023-06-10T09:31:04;102760.64;;;21.82;27.08
77897;BME280;67092;64.282;21.056;2023-06-10T09:33:26;102760.09;;;21.52;27.25
77897;BME280;67092;64.282;21.056;2023-06-10T09:35:51;102759.23;;;21.33;27.50
77897;BME280;67092;64.282;21.056;2023-06-10T09:38:20;102762.64;;;21.33;27.58
77897;BME280;67092;64.282;21.056;2023-06-10T09:40:50;102760.46;;;21.61;27.36
77897;BME280;67092;64.282;21.056;2023-06-10T09:43:08;102758.20;;;21.80;27.13
77897;BME280;67092;64.282;21.056;2023-06-10T09:45:34;102752.44;;;21.77;27.28
77897;BME280;67092;64.282;21.056;2023-06-10T09:48:00;102754.12;;;21.61;27.46
77897;BME280;67092;64.282;21.056;2023-06-10T09:50:26;102750.41;;;21.57;27.57
77897;BME280;67092;64.282;21.056;2023-06-10T09:52:51;102747.01;;;21.71;27.41
77897;BME280;67092;64.282;21.056;2023-06-10T09:55:17;102746.36;;;21.28;27.87
77897;BME280;67092;64.282;21.056;2023-06-10T09:57:42;102747.05;;;21.24;28.19
77897;BME280;67092;64.282;21.056;2023-06-10T10:00:09;102739.87;;;21.15;28.11
77897;BME280;67092;64.282;21.056;2023-06-10T10:02:33;102737.98;;;21.45;28.01
77897;BME280;67092;64.282;21.056;2023-06-10T10:05:03;102738.55;;;21.31;27.91
77897;BME280;67092;64.282;21.056;2023-06-10T10:07:24;102737.78;;;21.14;28.14
77897;BME280;67092;64.282;21.056;2023-06-10T10:09:50;102737.68;;;21.32;27.94
77897;BME280;67092;64.282;21.056;2023-06-10T10:12:16;102733.60;;;21.47;27.75
77897;BME280;67092;64.282;21.056;2023-06-10T10:14:46;102731.67;;;21.52;27.71
77897;BME280;67092;64.282;21.056;2023-06-10T10:17:09;102725.85;;;21.28;27.96
77897;BME280;67092;64.282;21.056;2023-06-10T10:19:32;102727.99;;;21.39;27.81
77897;BME280;67092;64.282;21.056;2023-06-10T10:22:03;102734.14;;;21.81;27.94
77897;BME280;67092;64.282;21.056;2023-06-10T10:24:25;102722.12;;;21.77;27.63
77897;BME280;67092;64.282;21.056;2023-06-10T10:26:49;102717.56;;;21.62;27.76
77897;BME280;67092;64.282;21.056;2023-06-10T10:29:21;102713.93;;;21.64;27.75
77897;BME280;67092;64.282;21.056;2023-06-10T10:31:41;102710.49;;;21.94;27.43
77897;BME280;67092;64.282;21.056;2023-06-10T10:34:07;102709.60;;;21.11;28.07
77897;BME280;67092;64.282;21.056;2023-06-10T10:36:31;102705.00;;;21.52;27.61
77897;BME280;67092;64.282;21.056;2023-06-10T10:38:56;102702.05;;;21.70;27.39
77897;BME280;67092;64.282;21.056;2023-06-10T10:41:23;102690.01;;;21.77;27.32
77897;BME280;67092;64.282;21.056;2023-06-10T10:43:48;102689.31;;;21.73;27.05
77897;BME280;67092;64.282;21.056;2023-06-10T10:46:14;102690.88;;;21.46;27.15
77897;BME280;67092;64.282;21.056;2023-06-10T10:48:39;102688.64;;;21.50;27.04
77897;BME280;67092;64.282;21.056;2023-06-10T10:51:04;102688.09;;;21.28;27.24
77897;BME280;67092;64.282;21.056;2023-06-10T10:53:30;102685.45;;;21.24;27.17
77897;BME280;67092;64.282;21.056;2023-06-10T10:55:59;102686.91;;;21.44;26.94
77897;BME280;67092;64.282;21.056;2023-06-10T10:58:24;102684.58;;;21.21;27.12
77897;BME280;67092;64.282;21.056;2023-06-10T11:00:49;102680.93;;;21.19;27.05
77897;BME280;67092;64.282;21.056;2023-06-10T11:03:14;102679.59;;;21.48;26.72
77897;BME280;67092;64.282;21.056;2023-06-10T11:05:39;102673.44;;;21.01;27.14
77897;BME280;67092;64.282;21.056;2023-06-10T11:08:04;102676.07;;;21.36;26.75
77897;BME280;67092;64.282;21.056;2023-06-10T11:10:30;102672.51;;;21.06;27.01
77897;BME280;67092;64.282;21.056;2023-06-10T11:12:54;102672.66;;;21.00;27.04
77897;BME280;67092;64.282;21.056;2023-06-10T11:15:22;102674.09;;;21.25;26.77
77897;BME280;67092;64.282;21.056;2023-06-10T11:20:11;102673.27;;;21.29;26.65
77897;BME280;67092;64.282;21.056;2023-06-10T11:25:03;102669.39;;;21.48;26.65
77897;BME280;67092;64.282;21.056;2023-06-10T11:27:37;102665.31;;;21.45;26.67
77897;BME280;67092;64.282;21.056;2023-06-10T11:29:58;102664.22;;;21.34;26.50
77897;BME280;67092;64.282;21.056;2023-06-10T11:32:19;102662.41;;;21.34;26.46
77897;BME280;67092;64.282;21.056;2023-06-10T11:34:51;102654.17;;;21.22;26.59
77897;BME280;67092;64.282;21.056;2023-06-10T11:37:10;102653.07;;;21.33;26.47
77897;BME280;67092;64.282;21.056;2023-06-10T11:39:36;102650.43;;;21.26;26.53
77897;BME280;67092;64.282;21.056;2023-06-10T11:42:02;102652.96;;;21.30;26.50
77897;BME280;67092;64.282;21.056;2023-06-10T11:44:28;102646.19;;;21.69;26.27
77897;BME280;67092;64.282;21.056;2023-06-10T11:46:52;102646.08;;;21.57;26.20
77897;BME280;67092;64.282;21.056;2023-06-10T11:49:20;102639.85;;;21.56;26.20
77897;BME280;67092;64.282;21.056;2023-06-10T11:51:44;102643.26;;;21.37;26.18
77897;BME280;67092;64.282;21.056;2023-06-10T11:54:09;102646.36;;;21.02;26.04
77897;BME280;67092;64.282;21.056;2023-06-10T11:56:35;102642.01;;;21.52;25.92
77897;BME280;67092;64.282;21.056;2023-06-10T11:59:02;102640.61;;;21.27;26.11
77897;BME280;67092;64.282;21.056;2023-06-10T12:01:27;102639.90;;;20.92;26.20
77897;BME280;67092;64.282;21.056;2023-06-10T12:03:58;102639.83;;;21.58;26.08
77897;BME280;67092;64.282;21.056;2023-06-10T12:06:17;102641.43;;;21.61;25.87
77897;BME280;67092;64.282;21.056;2023-06-10T12:08:43;102636.97;;;21.56;25.99
77897;BME280;67092;64.282;21.056;2023-06-10T12:11:09;102628.11;;;21.22;26.33
77897;BME280;67092;64.282;21.056;2023-06-10T12:13:34;102634.91;;;21.09;26.53
77897;BME280;67092;64.282;21.056;2023-06-10T12:16:06;102628.51;;;21.29;26.37
77897;BME280;67092;64.282;21.056;2023-06-10T12:18:25;102628.11;;;21.67;26.07
77897;BME280;67092;64.282;21.056;2023-06-10T12:20:51;102622.71;;;21.46;26.29
77897;BME280;67092;64.282;21.056;2023-06-10T12:23:18;102618.98;;;21.35;26.39
77897;BME280;67092;64.282;21.056;2023-06-10T12:25:50;102619.97;;;21.26;26.59
77897;BME280;67092;64.282;21.056;2023-06-10T12:28:10;102616.17;;;21.27;26.62
77897;BME280;67092;64.282;21.056;2023-06-10T12:30:33;102614.93;;;21.36;26.53
77897;BME280;67092;64.282;21.056;2023-06-10T12:32:59;102608.10;;;21.69;26.23
77897;BME280;67092;64.282;21.056;2023-06-10T12:35:26;102607.81;;;21.38;26.56